Time;durP1;ratioP1;P1;durP2;ratioP2;P2;SDS_P1;SDS_P2;PMS_P1;PMS_P2;Temp;Humidity;BMP_temperature;BMP_pressure;BME280_temperature;BME280_humidity;BME280_pressure;Samples;Min_cycle;Max_cycle;Signal;HPM_P1;HPM_P2
2022/10/11 03:00:57;;;;;;;1.70;1.27;;;20.60;48.70;;;;;;5683953;23;45830;-63
2022/10/11 03:03:23;;;;;;;1.50;1.20;;;20.60;48.70;;;;;;4880362;28;45020;-64
2022/10/11 03:05:48;;;;;;;2.47;1.30;;;20.60;48.70;;;;;;4874307;28;45398;-62
2022/10/11 03:08:15;;;;;;;3.58;1.40;;;20.60;48.60;;;;;;4893301;28;44710;-65
2022/10/11 03:10:40;;;;;;;1.38;1.10;;;20.60;48.60;;;;;;4893623;28;46960;-66
2022/10/11 03:13:06;;;;;;;1.33;1.08;;;20.60;48.70;;;;;;4883833;29;45458;-62
2022/10/11 03:15:32;;;;;;;2.10;1.08;;;20.60;48.70;;;;;;4893000;28;45602;-66
2022/10/11 03:17:57;;;;;;;1.60;0.88;;;20.60;48.70;;;;;;4895765;28;45526;-64
2022/10/11 03:20:23;;;;;;;2.10;1.40;;;20.60;48.70;;;;;;4880773;28;46143;-62
2022/10/11 03:22:49;;;;;;;1.30;1.00;;;20.60;48.60;;;;;;4894763;28;45406;-65
2022/10/11 03:25:14;;;;;;;1.10;1.00;;;20.60;48.70;;;;;;4896211;28;46053;-66
2022/10/11 03:27:40;;;;;;;1.77;1.00;;;20.60;48.60;;;;;;4889520;28;45541;-64
2022/10/11 03:30:07;;;;;;;2.33;1.25;;;20.60;48.60;;;;;;4878666;29;45935;-65
2022/10/11 03:32:33;;;;;;;1.23;1.13;;;20.60;48.70;;;;;;4898441;28;45057;-66
2022/10/11 03:34:58;;;;;;;1.38;1.02;;;20.50;48.70;;;;;;4897460;28;45478;-65
2022/10/11 03:37:24;;;;;;;1.52;1.10;;;20.50;48.60;;;;;;4892194;28;45095;-66
2022/10/11 03:39:50;;;;;;;1.63;1.10;;;20.50;48.60;;;;;;4892521;28;46156;-63
2022/10/11 03:42:15;;;;;;;1.08;0.85;;;20.50;48.70;;;;;;4895218;28;45293;-65
2022/10/11 03:44:41;;;;;;;1.13;0.90;;;20.50;48.70;;;;;;4894430;28;45201;-63
2022/10/11 03:47:07;;;;;;;1.40;1.20;;;20.50;48.70;;;;;;4879746;29;45419;-66
2022/10/11 03:49:32;;;;;;;1.40;1.00;;;20.50;48.70;;;;;;4862646;29;45792;-65
2022/10/11 03:51:59;;;;;;;1.35;1.00;;;20.50;48.70;;;;;;4891449;28;45263;-65
2022/10/11 03:54:24;;;;;;;1.77;1.27;;;20.50;48.80;;;;;;4872611;29;45555;-67
2022/10/11 03:56:50;;;;;;;2.03;1.20;;;20.50;48.70;;;;;;4891815;28;45450;-60
2022/10/11 03:59:15;;;;;;;1.02;0.93;;;20.50;48.70;;;;;;4895833;28;46006;-65
2022/10/11 04:01:41;;;;;;;1.55;1.10;;;20.50;48.80;;;;;;4891482;28;45190;-63
2022/10/11 04:04:06;;;;;;;1.58;1.20;;;20.50;48.80;;;;;;4895602;28;46760;-64
2022/10/11 04:06:32;;;;;;;1.63;1.02;;;20.50;48.70;;;;;;4898669;28;45815;-65
2022/10/11 04:08:58;;;;;;;1.80;1.10;;;20.50;48.70;;;;;;4877987;28;46095;-65
2022/10/11 04:11:23;;;;;;;2.20;1.05;;;20.60;48.80;;;;;;4875310;29;46863;-65
2022/10/11 04:13:49;;;;;;;1.80;1.20;;;20.50;48.80;;;;;;4906837;28;45402;-62
2022/10/11 04:16:14;;;;;;;1.50;1.15;;;20.50;48.80;;;;;;4897786;28;46470;-65
2022/10/11 04:18:40;;;;;;;0.80;0.80;;;20.50;48.80;;;;;;4886641;28;46058;-64
2022/10/11 04:21:05;;;;;;;1.92;1.08;;;20.50;48.80;;;;;;4878864;28;45659;-65
2022/10/11 04:23:31;;;;;;;1.75;1.27;;;20.50;48.80;;;;;;4898034;28;45538;-65
2022/10/11 04:25:56;;;;;;;2.42;0.90;;;20.50;48.80;;;;;;4897860;28;45247;-66
2022/10/11 04:28:22;;;;;;;1.90;1.00;;;20.50;48.80;;;;;;4899336;28;45561;-65
2022/10/11 04:30:47;;;;;;;1.38;1.20;;;20.40;48.80;;;;;;4910616;28;45430;-63
2022/10/11 04:33:13;;;;;;;2.08;1.05;;;20.40;48.80;;;;;;4882343;28;45337;-64
2022/10/11 04:35:39;;;;;;;1.77;1.00;;;20.40;48.80;;;;;;4901748;28;45617;-64
2022/10/11 04:38:04;;;;;;;1.50;1.25;;;20.40;48.80;;;;;;4899049;28;46094;-66
2022/10/11 04:40:30;;;;;;;1.10;1.00;;;20.50;49.50;;;;;;4876715;28;45173;-64
2022/10/11 04:42:56;;;;;;;0.90;0.90;;;20.40;48.80;;;;;;4896920;28;46381;-64
2022/10/11 04:45:21;;;;;;;1.77;1.27;;;20.40;48.80;;;;;;4898628;28;45514;-64
2022/10/11 04:47:47;;;;;;;2.28;1.00;;;20.40;48.70;;;;;;4878816;28;46065;-64
2022/10/11 04:50:13;;;;;;;1.20;1.00;;;20.50;48.70;;;;;;4882666;28;45214;-64
2022/10/11 04:52:38;;;;;;;1.95;0.93;;;20.50;48.60;;;;;;4902152;28;45485;-63
2022/10/11 04:55:04;;;;;;;1.00;0.93;;;20.50;48.60;;;;;;4881027;28;45020;-64
2022/10/11 04:57:30;;;;;;;1.30;1.15;;;20.60;48.60;;;;;;4879325;29;45483;-65
2022/10/11 04:59:55;;;;;;;1.42;1.17;;;20.60;48.60;;;;;;4893398;28;44896;-64
2022/10/11 05:02:21;;;;;;;2.22;1.20;;;20.60;48.60;;;;;;4895379;28;45414;-64
2022/10/11 05:04:46;;;;;;;1.20;1.00;;;20.60;48.60;;;;;;4879566;28;45370;-62
2022/10/11 05:07:12;;;;;;;1.40;1.25;;;20.60;48.60;;;;;;4889880;28;46210;-64
2022/10/11 05:09:37;;;;;;;1.48;1.23;;;20.60;48.60;;;;;;4896908;28;45494;-64
2022/10/11 05:12:03;;;;;;;2.03;1.20;;;20.60;48.60;;;;;;4887141;28;45276;-63
2022/10/11 05:14:29;;;;;;;1.65;1.20;;;20.60;48.60;;;;;;4874618;29;45147;-63
2022/10/11 05:16:54;;;;;;;1.42;1.10;;;20.60;48.50;;;;;;4894979;29;45468;-64
2022/10/11 05:19:20;;;;;;;1.08;0.90;;;20.60;48.60;;;;;;4894658;29;45176;-64
2022/10/11 05:21:45;;;;;;;1.10;0.90;;;20.70;48.60;;;;;;4879038;29;45522;-64
2022/10/11 05:24:11;;;;;;;1.75;1.00;;;20.70;48.60;;;;;;4893459;29;45207;-64
2022/10/11 05:26:36;;;;;;;1.48;1.08;;;20.70;48.60;;;;;;4890121;28;45883;-64
2022/10/11 05:29:02;;;;;;;1.13;1.02;;;20.60;48.60;;;;;;4875503;29;45362;-64
2022/10/11 05:31:27;;;;;;;0.98;0.80;;;20.60;48.70;;;;;;4876190;29;44674;-65
2022/10/11 05:33:53;;;;;;;1.60;1.45;;;20.60;48.80;;;;;;4896241;28;45336;-64
2022/10/11 05:36:19;;;;;;;1.98;1.33;;;20.60;48.80;;;;;;4896032;28;47214;-65
2022/10/11 05:38:44;;;;;;;1.50;1.05;;;20.60;48.80;;;;;;4890485;29;44914;-65
2022/10/11 05:41:12;;;;;;;1.60;1.05;;;20.60;48.80;;;;;;4888092;28;45564;-65
2022/10/11 05:43:37;;;;;;;1.42;1.05;;;20.60;48.80;;;;;;4878636;28;45454;-64
2022/10/11 05:46:03;;;;;;;1.60;1.13;;;20.60;48.90;;;;;;4894841;28;46854;-64
2022/10/11 05:48:29;;;;;;;2.13;1.20;;;20.60;48.90;;;;;;4889149;28;45253;-65
2022/10/11 05:50:59;;;;;;;1.50;1.10;;;20.60;48.90;;;;;;4897126;28;45104;-66
2022/10/11 05:53:24;;;;;;;1.88;1.25;;;20.60;48.90;;;;;;4883248;29;45398;-64
2022/10/11 05:55:50;;;;;;;1.10;1.00;;;20.60;49.00;;;;;;4897340;28;46113;-65
2022/10/11 05:58:17;;;;;;;1.75;1.20;;;20.60;48.90;;;;;;4880559;28;45286;-63
2022/10/11 06:00:43;;;;;;;1.33;1.05;;;20.50;48.90;;;;;;4877518;28;45537;-65
2022/10/11 06:03:09;;;;;;;1.80;1.02;;;20.60;48.90;;;;;;4917756;28;45644;-65
2022/10/11 06:05:35;;;;;;;1.90;1.25;;;20.60;48.90;;;;;;4898071;28;47005;-65
2022/10/11 06:08:01;;;;;;;1.77;1.38;;;20.60;48.90;;;;;;4924913;28;45185;-64
2022/10/11 06:10:27;;;;;;;1.65;1.10;;;20.50;48.90;;;;;;4885097;28;45898;-65
2022/10/11 06:12:52;;;;;;;1.45;0.90;;;20.50;48.90;;;;;;4901721;28;45872;-65
2022/10/11 06:15:18;;;;;;;2.13;1.50;;;20.50;49.00;;;;;;4923203;28;46152;-64
2022/10/11 06:17:44;;;;;;;1.85;1.33;;;20.50;49.00;;;;;;4919843;28;45540;-63
2022/10/11 06:20:09;;;;;;;1.63;1.25;;;20.50;48.90;;;;;;4898505;28;45621;-64
2022/10/11 06:22:35;;;;;;;3.50;1.30;;;20.60;48.80;;;;;;4922256;28;44697;-61
2022/10/11 06:25:00;;;;;;;1.65;1.30;;;20.70;48.70;;;;;;4919842;28;45425;-64
2022/10/11 06:27:26;;;;;;;1.85;1.30;;;20.90;48.60;;;;;;4901429;28;44665;-64
2022/10/11 06:29:52;;;;;;;2.17;1.30;;;21.00;48.30;;;;;;4918714;28;44978;-63
2022/10/11 06:32:17;;;;;;;3.05;1.25;;;21.20;48.10;;;;;;4899911;28;45504;-65
2022/10/11 06:34:43;;;;;;;2.25;1.25;;;21.40;47.90;;;;;;4918837;28;45089;-63
2022/10/11 06:37:08;;;;;;;2.22;1.30;;;21.50;47.60;;;;;;4916317;28;45587;-63
2022/10/11 06:39:34;;;;;;;1.67;1.25;;;21.70;47.50;;;;;;4920940;28;45353;-63
2022/10/11 06:41:59;;;;;;;3.17;1.00;;;21.80;47.30;;;;;;4919360;28;45587;-65
2022/10/11 06:44:25;;;;;;;1.98;1.10;;;21.90;47.20;;;;;;4916550;28;45316;-63
2022/10/11 06:46:51;;;;;;;2.38;1.02;;;22.00;47.10;;;;;;4917542;28;45023;-62
2022/10/11 06:49:16;;;;;;;1.63;1.17;;;22.10;47.00;;;;;;4917826;28;45540;-61
2022/10/11 06:51:42;;;;;;;1.98;1.20;;;22.20;46.90;;;;;;4920682;28;45754;-60
2022/10/11 06:54:07;;;;;;;1.98;1.20;;;22.30;46.80;;;;;;4919080;28;45935;-63
2022/10/11 06:56:33;;;;;;;1.38;0.90;;;22.40;46.70;;;;;;4920398;28;45220;-63
2022/10/11 06:58:59;;;;;;;;;;;22.50;46.70;;;;;;4922804;28;44885;-60
2022/10/11 07:01:24;;;;;;;;;;;22.60;46.40;;;;;;4911747;28;45469;-61
2022/10/11 07:03:50;;;;;;;;;;;22.70;46.30;;;;;;4883115;28;46304;-62
2022/10/11 07:06:17;;;;;;;0.70;0.70;;;22.80;46.20;;;;;;4898666;28;45261;-64
2022/10/11 07:08:43;;;;;;;3.15;0.88;;;22.90;46.30;;;;;;4900770;28;45341;-61
2022/10/11 07:11:13;;;;;;;1.08;0.90;;;23.00;46.20;;;;;;4882366;29;45511;-62
2022/10/11 07:13:39;;;;;;;1.70;1.10;;;23.10;46.00;;;;;;4903260;28;45898;-61
2022/10/11 07:16:09;;;;;;;1.17;0.85;;;23.20;46.00;;;;;;4890275;28;45490;-62
2022/10/11 07:18:35;;;;;;;1.50;0.93;;;23.20;45.80;;;;;;4899687;28;45027;-62
2022/10/11 07:21:05;;;;;;;2.03;1.20;;;23.30;45.80;;;;;;4901813;28;45385;-62
2022/10/11 07:23:31;;;;;;;1.10;0.90;;;23.40;45.60;;;;;;4897256;28;46575;-62
2022/10/11 07:25:56;;;;;;;1.25;0.85;;;23.50;45.60;;;;;;4905740;28;45383;-63
2022/10/11 07:28:22;;;;;;;1.75;0.95;;;23.60;45.50;;;;;;4885716;29;45183;-60
2022/10/11 07:30:47;;;;;;;6.70;1.25;;;23.70;45.50;;;;;;4897467;28;45494;-63
2022/10/11 07:33:13;;;;;;;1.23;0.93;;;23.80;45.50;;;;;;4897881;28;45921;-62
2022/10/11 07:35:38;;;;;;;1.08;0.70;;;23.80;45.30;;;;;;4865694;28;45615;-62
2022/10/11 07:38:04;;;;;;;1.13;0.90;;;23.90;45.20;;;;;;4902345;28;45492;-62
2022/10/11 07:40:30;;;;;;;1.27;0.80;;;24.00;45.10;;;;;;4882208;29;45461;-62
2022/10/11 07:42:56;;;;;;;0.82;0.80;;;24.10;45.10;;;;;;4883451;28;46061;-61
2022/10/11 07:45:27;;;;;;;1.25;0.90;;;24.20;45.00;;;;;;4883711;28;46032;-62
2022/10/11 07:47:54;;;;;;;1.92;0.90;;;24.30;44.90;;;;;;4901379;28;44903;-62
2022/10/11 07:50:20;;;;;;;2.65;1.33;;;24.30;44.80;;;;;;4900978;28;45282;-61
2022/10/11 07:52:45;;;;;;;1.20;0.80;;;24.40;44.70;;;;;;4898445;28;46154;-62
2022/10/11 07:55:11;;;;;;;1.67;1.05;;;24.50;44.60;;;;;;4901827;28;46227;-62
2022/10/11 07:57:36;;;;;;;1.17;0.82;;;24.60;44.60;;;;;;4909246;28;45131;-61
2022/10/11 08:00:02;;;;;;;1.25;0.88;;;24.60;44.40;;;;;;4897429;28;45483;-62
2022/10/11 08:02:28;;;;;;;1.75;1.30;;;24.70;44.50;;;;;;4899205;28;46906;-62
2022/10/11 08:04:53;;;;;;;2.47;1.02;;;24.70;44.40;;;;;;4918246;28;44866;-62
2022/10/11 08:07:19;;;;;;;1.67;0.90;;;24.80;44.40;;;;;;4918864;28;45343;-61
2022/10/11 08:09:44;;;;;;;1.50;0.90;;;24.80;44.30;;;;;;4919408;28;45632;-61
2022/10/11 08:12:31;;;;;;;1.63;0.88;;;24.90;44.20;;;;;;4919545;28;45396;-62
2022/10/11 08:14:56;;;;;;;1.02;0.90;;;25.00;44.10;;;;;;4898124;28;46014;-62
2022/10/11 08:17:22;;;;;;;1.38;0.82;;;25.00;44.00;;;;;;4920676;28;45910;-63
2022/10/11 08:19:47;;;;;;;1.73;0.90;;;25.00;44.00;;;;;;4916133;28;45623;-61
2022/10/11 08:22:13;;;;;;;1.70;0.90;;;25.00;43.90;;;;;;4913846;28;46211;-61
2022/10/11 08:24:38;;;;;;;2.85;0.85;;;25.10;43.90;;;;;;4913099;28;45256;-61
2022/10/11 08:27:04;;;;;;;2.97;0.85;;;25.10;43.80;;;;;;4916384;28;45538;-62
2022/10/11 08:29:29;;;;;;;1.40;0.95;;;25.20;43.90;;;;;;4919954;28;45289;-62
2022/10/11 08:31:55;;;;;;;0.80;0.80;;;25.20;43.80;;;;;;4916439;28;45192;-61
2022/10/11 08:34:20;;;;;;;0.95;0.73;;;25.20;43.70;;;;;;4916560;28;44583;-61
2022/10/11 08:36:47;;;;;;;0.98;0.85;;;25.30;43.70;;;;;;4900519;28;45282;-60
2022/10/11 08:39:13;;;;;;;2.50;0.70;;;25.30;43.70;;;;;;4915849;28;45446;-60
2022/10/11 08:41:49;;;;;;;0.98;0.82;;;25.40;43.70;;;;;;4919405;28;46019;-61
2022/10/11 08:44:49;;;;;;;0.93;0.80;;;25.40;43.60;;;;;;4919229;28;45173;-63
2022/10/11 08:47:36;;;;;;;1.17;0.90;;;25.40;43.10;;;;;;4898462;28;45011;-62
2022/10/11 08:50:03;;;;;;;1.20;0.98;;;25.40;43.10;;;;;;4902542;28;45707;-62
2022/10/11 08:53:00;;;;;;;1.38;0.85;;;25.50;43.50;;;;;;4913898;28;45536;-60
2022/10/11 08:55:31;;;;;;;1.27;0.90;;;25.50;43.10;;;;;;4899983;28;45192;-60
2022/10/11 08:57:56;;;;;;;1.90;0.95;;;25.50;43.30;;;;;;4915750;28;45210;-62
2022/10/11 09:00:22;;;;;;;0.95;0.80;;;25.60;43.40;;;;;;4898514;28;45132;-61
2022/10/11 09:03:09;;;;;;;2.15;1.05;;;25.60;43.30;;;;;;4899361;28;45614;-63
2022/10/11 09:05:37;;;;;;;1.17;0.90;;;25.60;43.10;;;;;;4921423;28;45578;-63
2022/10/11 09:08:18;;;;;;;1.77;1.00;;;25.70;43.30;;;;;;4901219;28;45360;-63
2022/10/11 09:11:04;;;;;;;2.38;1.05;;;25.70;43.30;;;;;;4916574;28;45337;-63
2022/10/11 09:13:59;;;;;;;1.13;0.88;;;25.70;42.90;;;;;;4917805;28;45472;-63
2022/10/11 09:16:49;;;;;;;1.45;0.90;;;25.80;42.80;;;;;;4892253;28;44709;-60
2022/10/11 09:19:24;;;;;;;1.60;0.93;;;25.80;43.00;;;;;;4911210;28;45204;-62
2022/10/11 09:21:56;;;;;;;3.30;0.90;;;25.80;43.00;;;;;;4905185;28;44987;-64
2022/10/11 09:24:44;;;;;;;3.47;0.90;;;25.90;43.10;;;;;;4900744;28;46208;-64
2022/10/11 09:27:18;;;;;;;2.00;1.23;;;25.90;43.00;;;;;;4902215;28;44655;-62
2022/10/11 09:30:03;;;;;;;1.83;0.90;;;25.90;42.80;;;;;;4891798;28;45256;-63
2022/10/11 09:32:59;;;;;;;2.22;0.70;;;26.00;42.80;;;;;;4915766;28;45446;-62
2022/10/11 09:35:26;;;;;;;1.63;0.93;;;26.00;42.90;;;;;;4914266;28;46173;-61
2022/10/11 09:38:01;;;;;;;2.08;1.15;;;26.00;43.00;;;;;;4892438;28;44982;-61
2022/10/11 09:40:48;;;;;;;0.93;0.82;;;26.00;42.80;;;;;;4902160;28;45065;-61
2022/10/11 09:43:14;;;;;;;0.90;0.80;;;26.10;42.80;;;;;;4918496;28;45494;-63
2022/10/11 09:45:43;;;;;;;1.38;0.88;;;26.10;42.90;;;;;;4922687;28;45845;-62
2022/10/11 09:48:11;;;;;;;1.45;0.80;;;26.10;42.80;;;;;;4918284;28;45729;-62
2022/10/11 09:50:37;;;;;;;1.73;1.08;;;26.20;42.90;;;;;;4886956;28;44857;-61
2022/10/11 09:53:03;;;;;;;1.58;0.88;;;26.20;42.90;;;;;;4901901;28;44782;-63
2022/10/11 09:55:35;;;;;;;1.23;0.95;;;26.20;42.80;;;;;;4917713;28;45320;-62
2022/10/11 09:58:02;;;;;;;0.93;0.77;;;26.30;42.80;;;;;;4912346;28;47056;-63
2022/10/11 10:00:32;;;;;;;0.93;0.85;;;26.30;42.80;;;;;;4903280;28;45352;-63
2022/10/11 10:03:01;;;;;;;1.30;0.75;;;26.30;42.70;;;;;;4921759;28;45301;-63
2022/10/11 10:05:35;;;;;;;0.85;0.60;;;26.30;42.70;;;;;;4920972;28;46093;-63
2022/10/11 10:08:10;;;;;;;0.68;0.50;;;26.40;42.60;;;;;;4920167;28;44610;-64
2022/10/11 10:10:43;;;;;;;0.82;0.70;;;26.40;42.50;;;;;;4923921;28;45378;-63
2022/10/11 10:13:22;;;;;;;2.05;0.85;;;26.40;42.50;;;;;;4870218;28;45507;-61
2022/10/11 10:15:50;;;;;;;1.98;0.68;;;26.50;42.90;;;;;;4917795;28;46207;-64
2022/10/11 10:18:22;;;;;;;2.03;0.70;;;26.50;42.60;;;;;;4904469;28;45252;-63
2022/10/11 10:20:53;;;;;;;1.25;0.70;;;26.50;42.50;;;;;;4919172;28;45553;-63
2022/10/11 10:23:20;;;;;;;1.00;0.90;;;26.50;42.40;;;;;;4902910;28;45855;-63
2022/10/11 10:25:50;;;;;;;1.80;0.80;;;26.60;42.60;;;;;;4900938;28;46047;-62
2022/10/11 10:28:17;;;;;;;1.13;0.85;;;26.60;42.50;;;;;;4884803;28;45512;-62
2022/10/11 10:30:54;;;;;;;1.48;0.80;;;26.60;42.50;;;;;;4899922;28;44807;-61
2022/10/11 10:33:28;;;;;;;0.77;0.70;;;26.60;42.30;;;;;;4920638;28;45328;-62
2022/10/11 10:36:05;;;;;;;1.42;0.90;;;26.70;42.50;;;;;;4919097;28;45278;-63
2022/10/11 10:38:36;;;;;;;1.27;0.70;;;26.70;42.30;;;;;;4888943;28;45388;-63
2022/10/11 10:41:12;;;;;;;0.63;0.60;;;26.70;42.40;;;;;;4909806;28;45185;-63
2022/10/11 10:43:38;;;;;;;1.10;0.75;;;26.60;42.20;;;;;;4887611;28;44872;-63
2022/10/11 10:46:29;;;;;;;3.20;0.73;;;26.60;42.60;;;;;;4915870;28;47164;-62
2022/10/11 10:49:10;;;;;;;2.35;0.90;;;26.50;42.50;;;;;;4920077;28;45241;-63
2022/10/11 10:51:45;;;;;;;0.93;0.80;;;26.40;42.70;;;;;;4904111;28;45231;-63
2022/10/11 10:54:16;;;;;;;1.40;0.70;;;26.30;42.80;;;;;;4901812;28;45541;-62
2022/10/11 10:56:51;;;;;;;1.48;0.70;;;26.20;42.90;;;;;;4900519;28;45444;-60
2022/10/11 10:59:45;;;;;;;1.33;0.70;;;26.10;42.90;;;;;;4919137;28;45266;-62
2022/10/11 11:02:19;;;;;;;0.68;0.68;;;26.10;42.90;;;;;;4918557;28;45225;-63
2022/10/11 11:05:07;;;;;;;0.90;0.60;;;26.00;43.10;;;;;;4904152;28;45538;-61
2022/10/11 11:08:01;;;;;;;0.95;0.60;;;26.00;43.20;;;;;;4914050;28;45403;-63
2022/10/11 11:10:40;;;;;;;1.02;0.80;;;25.90;43.10;;;;;;4912875;28;45631;-62
2022/10/11 11:13:29;;;;;;;1.05;0.60;;;25.90;43.30;;;;;;4912669;28;45276;-62
2022/10/11 11:16:18;;;;;;;1.13;0.70;;;25.80;43.30;;;;;;4918445;28;45738;-64
2022/10/11 11:18:57;;;;;;;0.98;0.82;;;25.80;43.40;;;;;;4902376;28;46387;-63
2022/10/11 11:21:38;;;;;;;2.72;0.63;;;25.80;43.50;;;;;;4903279;28;46896;-62
2022/10/11 11:24:41;;;;;;;1.55;0.80;;;25.70;43.60;;;;;;4913350;28;45185;-62
2022/10/11 11:27:30;;;;;;;1.50;0.80;;;25.70;43.60;;;;;;4914698;28;45433;-63
2022/10/11 11:30:22;;;;;;;1.10;0.80;;;25.60;43.60;;;;;;4916395;28;46576;-61
2022/10/11 11:33:10;;;;;;;1.27;0.73;;;25.60;43.70;;;;;;4902056;28;45266;-60
2022/10/11 11:35:41;;;;;;;1.15;0.73;;;25.60;43.80;;;;;;4914109;28;45458;-59
2022/10/11 11:38:21;;;;;;;3.55;0.90;;;25.50;43.80;;;;;;4920066;28;45165;-60
2022/10/11 11:40:50;;;;;;;2.63;0.80;;;25.50;43.80;;;;;;4909850;28;45705;-58
2022/10/11 11:43:35;;;;;;;2.00;1.02;;;25.50;43.90;;;;;;4900337;28;44705;-59
2022/10/11 11:46:40;;;;;;;2.55;0.80;;;25.40;43.90;;;;;;4900055;28;45302;-61
2022/10/11 11:49:22;;;;;;;1.45;0.70;;;25.40;44.30;;;;;;4858065;29;45450;-61
2022/10/11 11:51:47;;;;;;;0.80;0.80;;;25.40;44.00;;;;;;4912074;28;46557;-58
2022/10/11 11:54:39;;;;;;;1.33;0.80;;;25.40;44.10;;;;;;4895329;28;45634;-60
2022/10/11 11:57:15;;;;;;;1.65;0.85;;;25.30;44.10;;;;;;4915942;28;45665;-56
2022/10/11 11:59:56;;;;;;;1.13;0.70;;;25.30;44.20;;;;;;4893266;28;45564;-59
2022/10/11 12:02:49;;;;;;;1.40;0.90;;;25.20;44.20;;;;;;4896838;28;46418;-58
2022/10/11 12:05:22;;;;;;;0.80;0.80;;;25.20;44.20;;;;;;4913875;28;44652;-59
2022/10/11 12:07:51;;;;;;;1.17;0.88;;;25.20;44.30;;;;;;4917217;28;44691;-59
2022/10/11 12:10:28;;;;;;;0.85;0.70;;;25.20;44.30;;;;;;4915791;28;45484;-59
2022/10/11 12:13:17;;;;;;;0.80;0.80;;;25.10;44.30;;;;;;4914812;28;46202;-60
2022/10/11 12:16:12;;;;;;;0.63;0.63;;;25.10;44.40;;;;;;4921042;28;45201;-59
2022/10/11 12:18:51;;;;;;;1.20;0.93;;;25.10;44.40;;;;;;4894846;28;45497;-61
2022/10/11 12:21:26;;;;;;;1.23;0.88;;;25.00;44.40;;;;;;4913990;28;45056;-60
2022/10/11 12:23:56;;;;;;;2.38;0.75;;;25.00;44.50;;;;;;4888118;28;46286;-60
2022/10/11 12:26:28;;;;;;;0.90;0.80;;;25.00;44.50;;;;;;4905407;28;45042;-59
2022/10/11 12:29:19;;;;;;;0.85;0.70;;;25.00;44.60;;;;;;4914868;28;45282;-59
2022/10/11 12:31:48;;;;;;;1.27;0.80;;;25.00;44.60;;;;;;4906458;28;45216;-61
2022/10/11 12:34:34;;;;;;;1.20;0.82;;;25.00;44.70;;;;;;4902681;28;47081;-61
2022/10/11 12:37:21;;;;;;;2.30;0.80;;;24.90;44.70;;;;;;4911164;28;45179;-59
2022/10/11 12:39:57;;;;;;;1.00;0.70;;;24.90;44.80;;;;;;4913396;28;45055;-59
2022/10/11 12:42:29;;;;;;;1.17;0.70;;;24.80;44.70;;;;;;4915883;28;45326;-60
2022/10/11 12:45:10;;;;;;;2.50;0.80;;;24.90;44.80;;;;;;4918079;28;46027;-61
2022/10/11 12:47:39;;;;;;;1.85;0.80;;;24.80;44.80;;;;;;4912288;28;45359;-59
2022/10/11 12:50:17;;;;;;;1.25;0.85;;;24.80;44.80;;;;;;4914470;28;45201;-59
2022/10/11 12:53:04;;;;;;;0.57;0.52;;;24.80;44.90;;;;;;4912553;28;44908;-61
2022/10/11 12:55:44;;;;;;;1.63;0.90;;;24.80;44.90;;;;;;4909243;28;46306;-61
2022/10/11 12:58:40;;;;;;;0.60;0.60;;;24.80;44.90;;;;;;4896584;28;45001;-59
2022/10/11 13:01:08;;;;;;;1.58;0.70;;;24.80;45.10;;;;;;4895901;28;45338;-59
2022/10/11 13:03:48;;;;;;;1.80;1.10;;;24.70;45.00;;;;;;4915709;28;45097;-59
2022/10/11 13:06:24;;;;;;;0.98;0.77;;;24.70;45.00;;;;;;4910595;28;45449;-58
2022/10/11 13:09:02;;;;;;;3.05;0.88;;;24.70;45.00;;;;;;4912117;28;44875;-61
2022/10/11 13:11:33;;;;;;;1.40;0.70;;;24.60;45.00;;;;;;4913205;28;45238;-61
2022/10/11 13:14:23;;;;;;;1.55;0.90;;;24.70;45.10;;;;;;4914572;28;45298;-61
2022/10/11 13:17:00;;;;;;;0.90;0.70;;;24.60;45.20;;;;;;4915384;28;45465;-60
2022/10/11 13:19:25;;;;;;;1.92;1.00;;;24.60;45.20;;;;;;4912513;28;44731;-60
2022/10/11 13:21:59;;;;;;;2.25;1.00;;;24.60;45.20;;;;;;4913761;28;44914;-59
2022/10/11 13:24:26;;;;;;;0.70;0.70;;;24.60;45.20;;;;;;4898944;28;45302;-60
2022/10/11 13:26:53;;;;;;;0.80;0.55;;;24.50;45.10;;;;;;4915094;28;45328;-61
2022/10/11 13:29:39;;;;;;;1.48;1.00;;;24.50;45.20;;;;;;4896568;28;45601;-59
2022/10/11 13:32:15;;;;;;;0.70;0.70;;;24.50;45.20;;;;;;4912036;28;45448;-60
2022/10/11 13:34:41;;;;;;;0.93;0.70;;;24.50;45.30;;;;;;4912814;28;45116;-60
2022/10/11 13:37:07;;;;;;;1.00;0.90;;;24.50;45.30;;;;;;4914960;28;46219;-61
2022/10/11 13:39:37;;;;;;;1.63;0.73;;;24.50;45.30;;;;;;4893408;28;45215;-60
2022/10/11 13:42:04;;;;;;;1.58;0.93;;;24.50;45.40;;;;;;4913763;28;45372;-61
2022/10/11 13:44:31;;;;;;;1.30;0.95;;;24.40;45.40;;;;;;4913647;28;45446;-60
2022/10/11 13:46:56;;;;;;;6.15;1.00;;;24.40;45.40;;;;;;4899646;28;45156;-59
2022/10/11 13:49:38;;;;;;;1.27;0.80;;;24.40;45.40;;;;;;4895085;28;45602;-60
2022/10/11 13:52:21;;;;;;;0.95;0.70;;;24.40;45.40;;;;;;4894315;28;45486;-60
2022/10/11 13:54:53;;;;;;;;;;;24.40;45.50;;;;;;4898165;28;45276;-60
2022/10/11 13:57:40;;;;;;;1.67;0.85;;;24.40;45.70;;;;;;4912519;28;46169;-59
2022/10/11 14:00:16;;;;;;;1.25;0.60;;;24.40;45.50;;;;;;4909183;28;45286;-60
2022/10/11 14:03:03;;;;;;;1.25;0.60;;;24.40;45.60;;;;;;4911758;28;45195;-60
2022/10/11 14:05:31;;;;;;;1.42;0.80;;;24.30;45.60;;;;;;4896236;28;45335;-61
2022/10/11 14:07:58;;;;;;;1.48;0.70;;;24.40;45.60;;;;;;4898279;28;47312;-59
2022/10/11 14:10:24;;;;;;;1.05;0.70;;;24.30;45.50;;;;;;4884009;28;44622;-61
2022/10/11 14:13:30;;;;;;;0.88;0.70;;;24.30;45.90;;;;;;4914352;28;45524;-61
2022/10/11 14:16:05;;;;;;;1.13;0.80;;;24.30;45.70;;;;;;4855434;29;45394;-62
2022/10/11 14:18:38;;;;;;;2.47;0.80;;;24.30;45.80;;;;;;4911516;28;46106;-61
2022/10/11 14:21:19;;;;;;;1.98;0.80;;;24.30;45.80;;;;;;4917800;28;45321;-60
2022/10/11 14:24:02;;;;;;;1.55;0.75;;;24.30;45.90;;;;;;4919123;28;45192;-62
2022/10/11 14:26:34;;;;;;;;;;;24.30;45.80;;;;;;4917813;28;45056;-61
2022/10/11 14:29:05;;;;;;;1.02;0.60;;;24.20;46.00;;;;;;4920580;28;46225;-59
2022/10/11 14:31:30;;;;;;;1.75;1.00;;;24.20;45.80;;;;;;4901921;28;45235;-60
2022/10/11 14:33:56;;;;;;;1.45;0.85;;;24.20;45.80;;;;;;4903662;28;45265;-61
2022/10/11 14:36:21;;;;;;;2.45;0.77;;;24.20;45.80;;;;;;4917920;28;45756;-61
2022/10/11 14:38:50;;;;;;;1.23;0.95;;;24.20;45.90;;;;;;4918817;28;45917;-59
2022/10/11 14:41:16;;;;;;;1.40;0.80;;;24.20;45.90;;;;;;4919298;28;45290;-60
2022/10/11 14:43:41;;;;;;;1.08;0.50;;;24.20;45.90;;;;;;4914004;28;44920;-61
2022/10/11 14:46:18;;;;;;;1.95;0.90;;;24.20;45.90;;;;;;4914934;28;44937;-60
2022/10/11 14:48:43;;;;;;;0.80;0.68;;;24.20;46.00;;;;;;4897099;28;45347;-62
2022/10/11 14:51:09;;;;;;;1.20;0.95;;;24.10;45.90;;;;;;4914440;28;44643;-62
2022/10/11 14:53:36;;;;;;;2.20;0.90;;;24.20;46.00;;;;;;4885464;28;45455;-61
2022/10/11 14:56:01;;;;;;;0.70;0.70;;;24.10;45.90;;;;;;4914411;28;45103;-57
2022/10/11 14:58:27;;;;;;;1.17;0.95;;;24.10;45.90;;;;;;4920007;28;46017;-60
2022/10/11 15:00:53;;;;;;;1.52;0.90;;;24.10;46.00;;;;;;4912068;28;45173;-60
2022/10/11 15:03:18;;;;;;;1.75;1.08;;;24.10;46.00;;;;;;4913875;28;45343;-62
2022/10/11 15:05:44;;;;;;;0.82;0.70;;;24.10;46.00;;;;;;4899025;28;45424;-59
2022/10/11 15:08:10;;;;;;;1.27;0.95;;;24.10;46.00;;;;;;4912181;28;47387;-59
2022/10/11 15:10:37;;;;;;;0.95;0.82;;;24.10;46.00;;;;;;4893389;28;44776;-61
2022/10/11 15:13:03;;;;;;;0.68;0.63;;;24.10;46.10;;;;;;4917013;28;44719;-61
2022/10/11 15:15:31;;;;;;;0.95;0.75;;;24.10;46.10;;;;;;4914656;28;45638;-59
2022/10/11 15:17:57;;;;;;;1.23;0.80;;;24.10;46.10;;;;;;4912851;28;46185;-59
2022/10/11 15:20:25;;;;;;;1.13;0.80;;;24.10;46.10;;;;;;4921245;28;45410;-59
2022/10/11 15:22:51;;;;;;;1.58;0.82;;;24.10;46.20;;;;;;4913149;28;45300;-60
2022/10/11 15:25:16;;;;;;;1.20;1.08;;;24.10;46.10;;;;;;4900484;28;45320;-60
2022/10/11 15:27:42;;;;;;;1.05;0.80;;;24.10;46.20;;;;;;4903723;28;46453;-62
2022/10/11 15:30:13;;;;;;;1.17;0.85;;;24.00;46.20;;;;;;4911904;28;45371;-62
2022/10/11 15:32:39;;;;;;;1.55;1.00;;;24.00;46.30;;;;;;4897949;28;45028;-62
2022/10/11 15:35:05;;;;;;;0.98;0.85;;;24.00;46.20;;;;;;4920286;28;45341;-62
2022/10/11 15:37:30;;;;;;;0.90;0.70;;;24.00;46.20;;;;;;4911428;28;46279;-61
2022/10/11 15:39:56;;;;;;;1.67;0.80;;;24.00;46.30;;;;;;4914848;28;45548;-62
2022/10/11 15:42:22;;;;;;;0.90;0.80;;;24.00;46.30;;;;;;4913050;28;45278;-61
2022/10/11 15:44:47;;;;;;;1.75;0.90;;;24.00;46.30;;;;;;4912572;28;45486;-60
2022/10/11 15:47:13;;;;;;;1.55;0.93;;;24.00;46.30;;;;;;4911168;28;47096;-61
2022/10/11 15:49:38;;;;;;;1.33;0.80;;;24.00;46.40;;;;;;4913864;28;45489;-61
2022/10/11 15:52:04;;;;;;;1.08;0.75;;;24.00;46.40;;;;;;4915444;28;45142;-59
2022/10/11 15:54:30;;;;;;;2.88;0.85;;;23.90;46.30;;;;;;4914234;28;45397;-60
2022/10/11 15:56:55;;;;;;;1.92;1.00;;;23.90;46.40;;;;;;4913185;28;46113;-61
2022/10/11 15:59:21;;;;;;;1.13;0.80;;;23.90;46.40;;;;;;4912680;28;45490;-62
2022/10/11 16:01:46;;;;;;;1.40;0.70;;;23.90;46.40;;;;;;4913127;28;45434;-61
2022/10/11 16:04:12;;;;;;;0.75;0.68;;;23.90;46.50;;;;;;4915513;28;44739;-61
2022/10/11 16:06:39;;;;;;;1.08;0.90;;;23.90;46.50;;;;;;4914917;28;45828;-62